Terminal Aerodrome Forecast
Issued by NWS Paducah, KY

Home | Current Version | Previous Version | Graphics & Text | Print | Product List | Glossary On
Versions: 1 2 3 4 5 6 7 8 9 10 11 12 13 14 15 16 17 18 19 20 21 22 23 24
725
FTUS43 KPAH 211728
TAFEVV
TAF
KEVV 211728Z 2118/2218 20010G17KT P6SM FEW030 SCT200
     FM212300 15003KT P6SM SCT040 BKN150
     FM221000 06003KT 6SM -SHRA BR SCT030 BKN120
     FM221200 05005KT 3SM SHRA BR OVC008
     FM221400 05006KT 2SM SHRA BR OVC003=

USA.gov is the U.S. government's official web portal to all federal, state and local government web resources and services.